createdAt,value
2023-02-11T00:01:49.541Z,54.07
2023-02-11T00:04:15.850Z,54.13
2023-02-11T00:06:42.142Z,54.11
2023-02-11T00:09:08.415Z,54.04
2023-02-11T00:11:34.670Z,53.73
2023-02-11T00:14:00.954Z,54.22
2023-02-11T00:16:27.310Z,53.56
2023-02-11T00:18:53.639Z,53.63
2023-02-11T00:21:19.986Z,53.99
2023-02-11T00:23:46.256Z,53.72
2023-02-11T00:26:12.546Z,53.90
2023-02-11T00:28:38.809Z,54.07
2023-02-11T00:31:05.276Z,53.82
2023-02-11T00:33:31.585Z,53.90
2023-02-11T00:35:57.839Z,54.05
2023-02-11T00:38:24.092Z,53.84
2023-02-11T00:40:50.364Z,53.78
2023-02-11T00:43:16.649Z,53.85
2023-02-11T00:45:42.926Z,54.04
2023-02-11T00:48:09.201Z,53.67
2023-02-11T00:50:35.497Z,53.59
2023-02-11T00:53:01.760Z,54.00
2023-02-11T00:55:28.037Z,53.57
2023-02-11T00:57:54.317Z,53.72
2023-02-11T01:00:20.589Z,53.51
2023-02-11T01:02:46.877Z,53.39
2023-02-11T01:05:13.274Z,53.35
2023-02-11T01:07:39.576Z,53.32
2023-02-11T01:10:05.840Z,53.31
2023-02-11T01:12:34.012Z,53.28
2023-02-11T01:15:02.232Z,53.14
2023-02-11T01:17:28.489Z,53.33
2023-02-11T01:19:54.775Z,53.18
2023-02-11T01:22:21.044Z,53.32
2023-02-11T01:24:47.330Z,53.09
2023-02-11T01:27:13.595Z,53.03
2023-02-11T01:29:39.867Z,53.05
2023-02-11T01:32:06.163Z,53.56
2023-02-11T01:34:32.454Z,53.40
2023-02-11T01:36:58.736Z,53.56
2023-02-11T01:39:25.011Z,53.71
2023-02-11T01:41:51.273Z,53.71
2023-02-11T01:44:17.545Z,53.95
2023-02-11T01:46:43.908Z,54.06
2023-02-11T01:49:10.286Z,53.98
2023-02-11T01:51:36.602Z,53.69
2023-02-11T01:54:02.858Z,53.93
2023-02-11T01:56:29.131Z,54.02
2023-02-11T01:58:55.422Z,54.15
2023-02-11T02:01:21.738Z,54.65
2023-02-11T02:03:48.066Z,54.91
2023-02-11T02:06:14.389Z,55.02
2023-02-11T02:08:40.709Z,55.20
2023-02-11T02:11:07.005Z,55.36
2023-02-11T02:13:33.261Z,54.95
2023-02-11T02:15:59.575Z,55.19
2023-02-11T02:18:25.869Z,54.88
2023-02-11T02:20:52.144Z,55.33
2023-02-11T02:23:18.404Z,56.06
2023-02-11T02:25:44.682Z,55.51
2023-02-11T02:28:10.964Z,56.06
2023-02-11T02:30:37.286Z,56.14
2023-02-11T02:33:16.777Z,56.17
2023-02-11T02:35:48.301Z,55.99
2023-02-11T02:38:14.750Z,56.52
2023-02-11T02:40:41.011Z,56.40
2023-02-11T02:43:07.282Z,56.34
2023-02-11T02:45:34.605Z,56.05
2023-02-11T02:48:00.867Z,56.43
2023-02-11T02:50:27.157Z,56.55
2023-02-11T02:52:53.437Z,56.55
2023-02-11T02:55:19.710Z,56.54
2023-02-11T02:57:45.973Z,56.53
2023-02-11T03:00:12.246Z,56.14
2023-02-11T03:02:38.512Z,56.71
2023-02-11T03:05:04.789Z,56.87
2023-02-11T03:07:31.077Z,57.06
2023-02-11T03:09:57.351Z,56.60
2023-02-11T03:12:23.653Z,57.15
2023-02-11T03:14:49.937Z,56.71
2023-02-11T03:17:16.216Z,56.79
2023-02-11T03:19:42.482Z,56.62
2023-02-11T03:22:08.767Z,57.02
2023-02-11T03:24:35.020Z,56.88
2023-02-11T03:27:01.302Z,57.06
2023-02-11T03:29:27.710Z,57.01
2023-02-11T03:31:54.057Z,57.27
2023-02-11T03:34:20.330Z,57.28
2023-02-11T03:36:46.608Z,57.35
2023-02-11T03:39:12.885Z,57.32
2023-02-11T03:41:39.180Z,56.95
2023-02-11T03:44:05.477Z,57.29
2023-02-11T03:46:31.743Z,57.51
2023-02-11T03:48:58.008Z,57.33
2023-02-11T03:51:24.388Z,57.62
2023-02-11T03:53:50.664Z,57.15
2023-02-11T03:56:16.963Z,57.50
2023-02-11T03:58:43.218Z,57.29
2023-02-11T04:01:09.539Z,57.37
2023-02-11T04:03:35.962Z,57.23
2023-02-11T04:06:02.282Z,57.52
2023-02-11T04:08:28.555Z,57.35
2023-02-11T04:10:54.830Z,57.36
2023-02-11T04:13:21.098Z,57.45
2023-02-11T04:15:49.006Z,57.37
2023-02-11T04:18:15.513Z,57.52
2023-02-11T04:20:41.779Z,57.80
2023-02-11T04:23:08.074Z,57.57
2023-02-11T04:25:34.452Z,57.64
2023-02-11T04:28:00.756Z,57.55
2023-02-11T04:30:27.064Z,57.69
2023-02-11T04:32:53.343Z,57.70
2023-02-11T04:35:19.620Z,57.68
2023-02-11T04:37:45.889Z,57.27
2023-02-11T04:40:12.158Z,57.44
2023-02-11T04:42:38.431Z,57.75
2023-02-11T04:45:04.707Z,57.22
2023-02-11T04:47:30.970Z,57.57
2023-02-11T04:49:57.240Z,57.34
2023-02-11T04:52:23.494Z,57.49
2023-02-11T04:54:49.768Z,57.64
2023-02-11T04:57:16.032Z,57.96
2023-02-11T04:59:42.320Z,57.81
2023-02-11T05:02:08.634Z,57.91
2023-02-11T05:04:34.997Z,57.69
2023-02-11T05:07:01.316Z,57.93
2023-02-11T05:09:27.592Z,57.95
2023-02-11T05:11:53.841Z,57.98
2023-02-11T05:14:20.101Z,57.94
2023-02-11T05:16:46.399Z,58.56
2023-02-11T05:19:12.769Z,58.43
2023-02-11T05:21:40.116Z,58.22
2023-02-11T05:24:08.618Z,58.42
2023-02-11T05:26:34.898Z,58.26
2023-02-11T05:29:01.155Z,58.22
2023-02-11T05:31:27.435Z,58.45
2023-02-11T05:33:53.738Z,58.56
2023-02-11T05:36:19.999Z,58.47
2023-02-11T05:38:46.277Z,58.63
2023-02-11T05:41:12.557Z,59.33
2023-02-11T05:43:38.837Z,59.03
2023-02-11T05:46:05.223Z,58.63
2023-02-11T05:48:31.571Z,58.45
2023-02-11T05:50:57.838Z,58.63
2023-02-11T05:53:24.211Z,58.94
2023-02-11T05:55:50.784Z,58.69
2023-02-11T05:58:17.253Z,58.81
2023-02-11T06:00:43.537Z,58.39
2023-02-11T06:03:09.820Z,58.49
2023-02-11T06:05:36.102Z,58.30
2023-02-11T06:08:02.395Z,58.62
2023-02-11T06:10:28.664Z,58.28
2023-02-11T06:12:54.952Z,58.35
2023-02-11T06:15:21.267Z,58.21
2023-02-11T06:17:47.548Z,58.23
2023-02-11T06:20:13.839Z,58.17
2023-02-11T06:22:40.117Z,58.32
2023-02-11T06:25:06.407Z,58.13
2023-02-11T06:27:32.702Z,58.02
2023-02-11T06:29:59.003Z,58.52
2023-02-11T06:32:43.010Z,58.35
2023-02-11T06:35:12.087Z,58.21
2023-02-11T06:37:38.639Z,57.86
2023-02-11T06:40:04.931Z,57.88
2023-02-11T06:42:31.211Z,58.08
2023-02-11T06:44:57.494Z,57.93
2023-02-11T06:47:23.810Z,57.70
2023-02-11T06:49:50.066Z,57.64
2023-02-11T06:52:16.343Z,57.82
2023-02-11T06:54:42.633Z,57.68
2023-02-11T06:57:08.908Z,57.74
2023-02-11T06:59:35.255Z,57.70
2023-02-11T07:02:01.635Z,57.70
2023-02-11T07:04:27.932Z,57.98
2023-02-11T07:06:54.248Z,57.73
2023-02-11T07:09:20.516Z,57.92
2023-02-11T07:11:46.801Z,57.77
2023-02-11T07:14:13.080Z,57.79
2023-02-11T07:16:39.445Z,58.12
2023-02-11T07:19:05.828Z,57.94
2023-02-11T07:21:32.123Z,58.10
2023-02-11T07:23:58.414Z,57.97
2023-02-11T07:26:24.657Z,58.49
2023-02-11T07:28:50.922Z,58.08
2023-02-11T07:31:17.289Z,58.50
2023-02-11T07:33:43.677Z,58.40
2023-02-11T07:36:09.952Z,58.75
2023-02-11T07:38:36.218Z,58.83
2023-02-11T07:41:02.521Z,58.99
2023-02-11T07:43:28.824Z,58.77
2023-02-11T07:45:55.090Z,58.97
2023-02-11T07:48:21.386Z,58.94
2023-02-11T07:50:47.646Z,58.94
2023-02-11T07:53:13.926Z,59.08
2023-02-11T07:55:40.178Z,58.98
2023-02-11T07:58:06.442Z,59.24
2023-02-11T08:00:32.733Z,58.69
2023-02-11T08:02:59.017Z,58.64
2023-02-11T08:05:25.304Z,58.58
2023-02-11T08:07:51.647Z,58.61
2023-02-11T08:10:17.900Z,58.53
2023-02-11T08:12:44.180Z,58.56
2023-02-11T08:15:10.465Z,57.89
2023-02-11T08:17:36.724Z,58.23
2023-02-11T08:20:02.998Z,58.03
2023-02-11T08:22:29.339Z,57.98
2023-02-11T08:24:55.619Z,58.43
2023-02-11T08:27:21.880Z,58.08
2023-02-11T08:29:48.157Z,58.54
2023-02-11T08:32:14.475Z,58.18
2023-02-11T08:34:40.810Z,58.06
2023-02-11T08:37:07.080Z,57.88
2023-02-11T08:39:33.338Z,58.23
2023-02-11T08:41:59.606Z,58.50
2023-02-11T08:44:25.877Z,57.92
2023-02-11T08:46:52.189Z,57.65
2023-02-11T08:49:18.450Z,57.62
2023-02-11T08:51:44.727Z,57.72
2023-02-11T08:54:11.013Z,57.72
2023-02-11T08:56:37.261Z,57.55
2023-02-11T08:59:03.572Z,57.89
2023-02-11T09:01:29.933Z,57.76
2023-02-11T09:03:56.241Z,57.19
2023-02-11T09:06:22.629Z,58.21
2023-02-11T09:08:48.927Z,57.28
2023-02-11T09:11:15.227Z,57.88
2023-02-11T09:13:41.507Z,57.86
2023-02-11T09:16:07.816Z,57.94
2023-02-11T09:57:28.636Z,57.49
2023-02-11T09:59:55.536Z,58.02
2023-02-11T10:02:21.962Z,57.43
2023-02-11T10:04:48.245Z,57.24
2023-02-11T10:07:14.495Z,57.17
2023-02-11T10:09:40.770Z,56.96
2023-02-11T10:12:07.030Z,56.77
2023-02-11T10:14:33.310Z,56.62
2023-02-11T10:16:59.621Z,56.43
2023-02-11T10:19:25.906Z,55.70
2023-02-11T10:21:52.287Z,55.91
2023-02-11T10:24:18.613Z,56.41
2023-02-11T10:26:44.881Z,55.98
2023-02-11T10:29:11.177Z,55.99
2023-02-11T10:31:37.596Z,55.95
2023-02-11T10:34:03.969Z,56.35
2023-02-11T10:36:30.240Z,55.88
2023-02-11T10:38:56.519Z,54.93
2023-02-11T10:41:22.797Z,54.91
2023-02-11T10:43:49.075Z,54.99
2023-02-11T10:46:15.412Z,54.38
2023-02-11T10:48:41.699Z,54.88
2023-02-11T10:51:07.985Z,54.37
2023-02-11T10:53:34.246Z,55.12
2023-02-11T10:56:00.594Z,55.31
2023-02-11T10:58:26.872Z,54.78
2023-02-11T11:00:53.602Z,54.45
2023-02-11T11:03:20.045Z,54.33
2023-02-11T11:05:46.339Z,53.92
2023-02-11T11:08:12.632Z,54.25
2023-02-11T11:10:38.930Z,53.80
2023-02-11T11:13:05.252Z,54.46
2023-02-11T11:15:31.547Z,53.91
2023-02-11T11:18:11.355Z,55.09
2023-02-11T11:20:44.173Z,54.58
2023-02-11T11:23:10.464Z,54.29
2023-02-11T11:25:36.780Z,54.20
2023-02-11T11:28:03.077Z,54.88
2023-02-11T11:30:29.376Z,53.54
2023-02-11T11:32:55.693Z,53.80
2023-02-11T11:35:21.995Z,53.17
2023-02-11T11:37:48.270Z,54.81
2023-02-11T11:40:14.564Z,53.56
2023-02-11T11:42:40.845Z,52.85
2023-02-11T11:45:07.145Z,53.31
2023-02-11T11:47:33.430Z,52.17
2023-02-11T11:49:59.710Z,51.49
2023-02-11T11:52:26.010Z,52.35
2023-02-11T11:54:52.307Z,52.08
2023-02-11T11:57:18.778Z,51.76
2023-02-11T11:59:45.098Z,50.79
2023-02-11T12:02:11.530Z,51.15
2023-02-11T12:04:37.848Z,53.51
2023-02-11T12:07:04.124Z,51.22
2023-02-11T12:09:30.490Z,50.32
2023-02-11T12:11:56.740Z,49.67
2023-02-11T12:14:23.018Z,49.99
2023-02-11T12:16:49.429Z,51.10
2023-02-11T12:19:15.779Z,51.95
2023-02-11T12:21:42.186Z,51.26
2023-02-11T12:24:08.447Z,49.82
2023-02-11T12:26:34.722Z,49.29
2023-02-11T12:29:01.049Z,48.12
2023-02-11T12:31:27.416Z,48.13
2023-02-11T12:33:53.750Z,48.37
2023-02-11T12:36:20.015Z,47.51
2023-02-11T12:38:46.342Z,47.21
2023-02-11T12:41:12.632Z,47.02
2023-02-11T12:43:38.885Z,45.86
2023-02-11T12:46:05.229Z,46.38
2023-02-11T12:48:33.044Z,45.94
2023-02-11T12:51:00.392Z,45.14
2023-02-11T12:53:26.717Z,44.79
2023-02-11T12:55:52.970Z,45.78
2023-02-11T12:58:19.233Z,44.20
2023-02-11T13:00:45.519Z,44.75
2023-02-11T13:03:11.832Z,44.91
2023-02-11T13:05:38.135Z,44.69
2023-02-11T13:08:04.421Z,44.70
2023-02-11T13:10:30.681Z,45.29
2023-02-11T13:12:56.969Z,44.23
2023-02-11T13:15:23.234Z,44.31
2023-02-11T13:17:49.518Z,45.37
2023-02-11T13:20:15.811Z,44.07
2023-02-11T13:22:42.112Z,44.75
2023-02-11T13:25:08.377Z,45.08
2023-02-11T13:27:34.659Z,44.38
2023-02-11T13:30:04.073Z,42.62
2023-02-11T13:32:30.558Z,42.63
2023-02-11T13:34:56.816Z,42.24
2023-02-11T13:37:23.107Z,41.90
2023-02-11T13:39:49.373Z,42.00
2023-02-11T13:42:15.656Z,42.33
2023-02-11T13:44:41.941Z,42.56
2023-02-11T13:47:08.213Z,42.52
2023-02-11T13:49:34.565Z,43.33
2023-02-11T13:52:00.885Z,42.71
2023-02-11T13:54:27.178Z,42.40
2023-02-11T13:56:53.476Z,42.45
2023-02-11T13:59:19.786Z,42.31
2023-02-11T14:01:46.088Z,42.63
2023-02-11T14:04:12.397Z,41.60
2023-02-11T14:06:38.803Z,42.20
2023-02-11T14:09:05.087Z,42.02
2023-02-11T14:11:31.389Z,42.63
2023-02-11T14:13:57.686Z,42.11
2023-02-11T14:16:36.886Z,41.22
2023-02-11T14:19:03.513Z,40.15
2023-02-11T14:21:29.813Z,41.29
2023-02-11T14:23:56.080Z,41.20
2023-02-11T14:26:22.465Z,41.36
2023-02-11T14:28:48.771Z,40.85
2023-02-11T14:31:15.123Z,40.26
2023-02-11T14:33:41.430Z,41.03
2023-02-11T14:36:07.704Z,40.27
2023-02-11T14:38:33.986Z,40.80
2023-02-11T14:41:00.294Z,40.78
2023-02-11T14:43:29.334Z,40.45
2023-02-11T14:45:55.959Z,40.27
2023-02-11T14:48:22.310Z,40.47
2023-02-11T14:50:48.744Z,40.12
2023-02-11T14:53:15.161Z,40.08
2023-02-11T14:55:41.452Z,40.43
2023-02-11T14:58:07.710Z,40.25
2023-02-11T15:00:33.990Z,40.91
2023-02-11T15:03:00.355Z,40.09
2023-02-11T15:05:26.662Z,39.30
2023-02-11T15:07:52.974Z,39.63
2023-02-11T15:10:19.303Z,38.24
2023-02-11T15:12:45.579Z,39.05
2023-02-11T15:15:11.878Z,38.54
2023-02-11T15:17:38.205Z,39.37
2023-02-11T15:20:04.515Z,38.32
2023-02-11T15:22:30.830Z,38.31
2023-02-11T15:24:57.102Z,38.80
2023-02-11T15:27:23.392Z,38.77
2023-02-11T15:29:49.703Z,38.10
2023-02-11T15:32:16.148Z,38.63
2023-02-11T15:34:42.634Z,38.20
2023-02-11T15:37:08.992Z,37.99
2023-02-11T15:39:35.392Z,38.37
2023-02-11T15:42:01.688Z,38.99
2023-02-11T15:44:27.971Z,38.95
2023-02-11T15:46:54.268Z,38.78
2023-02-11T15:49:20.576Z,39.17
2023-02-11T15:51:46.842Z,39.67
2023-02-11T15:54:13.170Z,39.43
2023-02-11T15:56:39.481Z,39.19
2023-02-11T15:59:05.775Z,39.79
2023-02-11T16:01:33.900Z,39.95
2023-02-11T16:04:00.482Z,40.05
2023-02-11T16:06:26.811Z,39.79
2023-02-11T16:08:53.168Z,40.74
2023-02-11T16:11:19.438Z,41.23
2023-02-11T16:13:45.722Z,41.39
2023-02-11T16:16:12.024Z,42.09
2023-02-11T16:18:39.783Z,41.55
2023-02-11T16:21:06.488Z,41.75
2023-02-11T16:23:32.793Z,41.98
2023-02-11T16:25:59.053Z,42.57
2023-02-11T16:28:25.399Z,42.55
2023-02-11T16:30:52.010Z,42.31
2023-02-11T16:33:18.503Z,42.81
2023-02-11T16:35:44.765Z,42.46
2023-02-11T16:38:11.167Z,43.20
2023-02-11T16:40:37.446Z,43.31
2023-02-11T16:43:03.722Z,43.21
2023-02-11T16:45:30.024Z,43.68
2023-02-11T16:47:56.310Z,43.83
2023-02-11T16:50:22.567Z,44.30
2023-02-11T16:52:48.893Z,44.73
2023-02-11T16:55:15.391Z,44.95
2023-02-11T16:57:41.716Z,44.85
2023-02-11T17:00:07.984Z,45.48
2023-02-11T17:02:34.296Z,45.40
2023-02-11T17:05:00.568Z,45.36
2023-02-11T17:07:26.852Z,45.98
2023-02-11T17:09:53.154Z,45.88
2023-02-11T17:12:19.446Z,45.86
2023-02-11T17:14:45.714Z,46.21
2023-02-11T17:17:12.040Z,46.41
2023-02-11T17:19:38.333Z,46.79
2023-02-11T17:22:04.598Z,46.30
2023-02-11T17:24:30.894Z,46.38
2023-02-11T17:26:57.173Z,46.67
2023-02-11T17:29:23.460Z,47.20
2023-02-11T17:31:49.812Z,47.37
2023-02-11T17:34:16.102Z,47.51
2023-02-11T17:36:42.357Z,47.55
2023-02-11T17:39:08.683Z,47.09
2023-02-11T17:41:34.997Z,47.62
2023-02-11T17:44:01.262Z,47.63
2023-02-11T17:46:27.592Z,47.79
2023-02-11T17:48:53.896Z,47.87
2023-02-11T17:51:20.208Z,46.21
2023-02-11T17:53:46.474Z,47.07
2023-02-11T17:56:12.737Z,47.11
2023-02-11T17:58:39.032Z,46.69
2023-02-11T18:01:05.357Z,46.92
2023-02-11T18:03:31.648Z,46.74
2023-02-11T18:05:57.965Z,46.92
2023-02-11T18:08:24.250Z,47.12
2023-02-11T18:10:50.513Z,47.28
2023-02-11T18:13:16.787Z,47.13
2023-02-11T18:15:43.053Z,47.14
2023-02-11T18:18:09.350Z,47.10
2023-02-11T18:20:35.610Z,47.79
2023-02-11T18:23:01.909Z,47.47
2023-02-11T18:25:28.171Z,47.32
2023-02-11T18:27:54.435Z,47.61
2023-02-11T18:30:20.699Z,47.79
2023-02-11T18:32:46.989Z,47.55
2023-02-11T18:35:14.924Z,47.71
2023-02-11T18:37:41.380Z,47.46
2023-02-11T18:40:07.656Z,47.51
2023-02-11T18:42:33.944Z,47.94
2023-02-11T18:45:00.292Z,48.07
2023-02-11T18:47:26.589Z,48.21
2023-02-11T18:49:52.867Z,48.27
2023-02-11T18:52:19.151Z,48.00
2023-02-11T18:54:45.430Z,48.13
2023-02-11T18:57:11.713Z,48.24
2023-02-11T18:59:37.981Z,47.86
2023-02-11T19:02:04.250Z,48.21
2023-02-11T19:04:30.590Z,48.11
2023-02-11T19:06:56.918Z,47.94
2023-02-11T19:09:23.209Z,48.28
2023-02-11T19:11:49.526Z,48.44
2023-02-11T19:14:15.801Z,48.56
2023-02-11T19:16:42.152Z,48.77
2023-02-11T19:19:08.424Z,48.71
2023-02-11T19:21:34.700Z,48.48
2023-02-11T19:24:01.014Z,48.64
2023-02-11T19:26:27.288Z,48.48
2023-02-11T19:28:53.589Z,48.74
2023-02-11T19:31:19.924Z,48.81
2023-02-11T19:33:46.201Z,48.64
2023-02-11T19:36:12.483Z,48.81
2023-02-11T19:38:38.756Z,48.64
2023-02-11T19:41:05.057Z,49.54
2023-02-11T19:43:31.340Z,49.45
2023-02-11T19:45:57.666Z,49.50
2023-02-11T19:48:24.030Z,49.16
2023-02-11T19:50:50.318Z,49.20
2023-02-11T19:53:16.590Z,49.85
2023-02-11T19:55:42.843Z,49.49
2023-02-11T19:58:09.131Z,50.02
2023-02-11T20:00:35.420Z,49.51
2023-02-11T20:03:01.785Z,50.04
2023-02-11T20:05:28.080Z,49.72
2023-02-11T20:07:54.339Z,49.95
2023-02-11T20:10:20.609Z,50.52
2023-02-11T20:12:46.896Z,50.63
2023-02-11T20:15:13.161Z,51.00
2023-02-11T20:17:39.409Z,51.03
2023-02-11T20:20:05.686Z,51.18
2023-02-11T20:22:31.970Z,51.21
2023-02-11T20:24:58.231Z,50.84
2023-02-11T20:27:24.526Z,50.86
2023-02-11T20:29:50.814Z,51.10
2023-02-11T20:32:17.108Z,51.36
2023-02-11T20:34:43.503Z,51.66
2023-02-11T20:37:09.767Z,51.17
2023-02-11T20:39:36.044Z,51.81
2023-02-11T20:42:02.339Z,52.01
2023-02-11T20:44:28.607Z,51.95
2023-02-11T20:46:55.008Z,51.75
2023-02-11T20:49:21.295Z,51.71
2023-02-11T20:51:47.562Z,51.31
2023-02-11T20:54:13.844Z,51.67
2023-02-11T20:56:40.129Z,51.82
2023-02-11T20:59:06.411Z,51.49
2023-02-11T21:01:32.703Z,51.73
2023-02-11T21:03:59.007Z,52.17
2023-02-11T21:06:25.285Z,52.01
2023-02-11T21:08:51.558Z,52.08
2023-02-11T21:11:17.839Z,51.83
2023-02-11T21:13:44.135Z,52.31
2023-02-11T21:16:10.549Z,52.42
2023-02-11T21:18:36.900Z,52.55
2023-02-11T21:21:06.039Z,52.76
2023-02-11T21:23:33.213Z,52.78
2023-02-11T21:25:59.490Z,52.40
2023-02-11T21:28:25.836Z,52.89
2023-02-11T21:30:52.344Z,52.65
2023-02-11T21:33:18.719Z,53.16
2023-02-11T21:35:45.017Z,53.00
2023-02-11T21:38:11.329Z,53.47
2023-02-11T21:40:37.600Z,53.41
2023-02-11T21:43:03.882Z,53.53
2023-02-11T21:45:32.303Z,53.71
2023-02-11T21:47:58.728Z,53.80
2023-02-11T21:50:25.001Z,53.58
2023-02-11T21:52:51.292Z,54.15
2023-02-11T21:55:17.558Z,54.23
2023-02-11T21:57:43.838Z,54.40
2023-02-11T22:00:10.128Z,54.23
2023-02-11T22:02:36.454Z,54.64
2023-02-11T22:05:02.824Z,54.44
2023-02-11T22:07:29.221Z,54.43
2023-02-11T22:09:55.503Z,54.42
2023-02-11T22:12:21.783Z,54.49
2023-02-11T22:14:48.083Z,54.36
2023-02-11T22:17:14.392Z,54.76
2023-02-11T22:19:40.734Z,54.43
2023-02-11T22:22:07.030Z,54.39
2023-02-11T22:24:33.297Z,54.59
2023-02-11T22:26:59.565Z,54.40
2023-02-11T22:29:25.833Z,54.31
2023-02-11T22:31:52.116Z,54.39
2023-02-11T22:34:18.400Z,54.19
2023-02-11T22:36:44.688Z,54.40
2023-02-11T22:39:10.969Z,54.17
2023-02-11T22:41:37.255Z,54.07
2023-02-11T22:44:03.555Z,54.10
2023-02-11T22:46:29.825Z,53.84
2023-02-11T22:48:56.115Z,54.12
2023-02-11T22:51:22.389Z,53.75
2023-02-11T22:53:48.681Z,53.92
2023-02-11T22:56:15.909Z,54.08
2023-02-11T22:58:42.373Z,53.60
2023-02-11T23:01:08.628Z,53.50
2023-02-11T23:03:34.897Z,53.60
2023-02-11T23:06:01.191Z,53.71
2023-02-11T23:08:27.465Z,54.10
2023-02-11T23:10:53.823Z,54.34
2023-02-11T23:13:20.159Z,54.01
2023-02-11T23:15:46.415Z,54.29
2023-02-11T23:18:12.682Z,54.10
2023-02-11T23:20:38.949Z,53.64
2023-02-11T23:23:05.264Z,53.36
2023-02-11T23:25:31.534Z,52.79
2023-02-11T23:27:57.843Z,52.61
2023-02-11T23:30:24.145Z,52.43
2023-02-11T23:32:50.417Z,52.29
2023-02-11T23:35:16.674Z,52.26
2023-02-11T23:37:43.013Z,52.01
2023-02-11T23:40:09.335Z,51.60
2023-02-11T23:42:35.630Z,51.79
2023-02-11T23:45:01.903Z,51.51
2023-02-11T23:47:28.282Z,51.07
2023-02-11T23:49:54.569Z,51.28
2023-02-11T23:52:20.832Z,51.61
2023-02-11T23:54:47.117Z,51.52
2023-02-11T23:57:13.377Z,51.40
2023-02-11T23:59:39.633Z,51.10
